Nearby METAR Reports

 

KAFF - US Air Force Academy
Distance from station: W 3mi, 4km
Updated: Wed, Jul-28-2021 4:58pm MDT
Few Clouds
Few Clouds
 Wind from NW
Wind: NW 8 mph , 13 km/h
Temperature: 91°F , 33°C
Dew Point: 30°F , -1°C
Humidity: 11%
Barometer: 30.21 inHg , 1023 hPa
Clouds: Few Clouds
Visibility: 10 miles , 16 km
Cloud details: Few Clouds 12000 ft
Few Clouds 20000 ft
2021/07/28 22:58 KAFF 282258Z 32007KT 10SM FEW120 FEW200 33/M01 A3021 RMK AO2A SLP130 T03301014
KCOS - Colorado Springs Municipal
Distance from station: SSE 11mi, 18km
Updated: Wed, Jul-28-2021 4:54pm MDT
Partly cloudy
Partly cloudy
 Wind from SE
Wind: SE 6 mph , 9 km/h
Temperature: 91°F , 33°C
Dew Point: 46°F , 8°C
Humidity: 21%
Barometer: 30.20 inHg , 1022.7 hPa
Clouds: Partly cloudy
Visibility: 10 miles , 16 km
Cloud details: Few Clouds 10000 ft
Few Clouds 16000 ft
Partly cloudy 23000 ft
2021/07/28 22:54 KCOS 282254Z 14005KT 10SM FEW100 FEW160 SCT230 33/08 A3020 RMK AO2 SLP122 T03330083
 
KFLY - Colorado Springs Meadow
Distance from station: E 11mi, 18km
Updated: Wed, Jul-28-2021 5:15pm MDT
Clear
Clear
 Wind from ESE
Wind: ESE 9 mph , 15 km/h
Temperature: 90°F , 32°C
Dew Point: 37°F , 3°C
Humidity: 16%
Barometer: 30.28 inHg , 1025.4 hPa
Clouds: Clear
Visibility: 10 miles , 16 km
2021/07/28 23:15 KFLY 282315Z AUTO 12008KT 10SM CLR 32/03 A3028 RMK AO2 T03220034
KCWN - Cheyenne Mountain
Distance from station: SSW 15mi, 24km
Updated: Wed, Jul-28-2021 4:58pm MDT
Clear
Clear
 Wind from calm
Wind: Calm
Temperature: 86°F , 30°C
Dew Point: 50°F , 10°C
Humidity: 29%
Barometer: 30.25 inHg , 1024.4 hPa
Clouds: Clear
Visibility: 10 miles , 16 km
2021/07/28 22:58 KCWN 282258Z AUTO 00000KT 10SM CLR 30/10 A3025 RMK AO2 LTG DSNT S-SW SLP046 T02980103 $
 
KMNH - Monument/Elbert
Distance from station: NNE 19mi, 30km
Updated: Wed, Jul-28-2021 5:14pm MDT
Clear
Clear
 Wind from NNW
Wind: NNW 5 mph , 7 km/h
Temperature: 88°F , 31°C
Dew Point: 34°F , 1°C
Humidity: 15%
Barometer: 30.29 inHg , 1025.7 hPa
Clouds: Clear
Visibility: 10 miles , 16 km
2021/07/28 23:14 KMNH 282314Z AUTO 34004KT 10SM CLR 31/01 A3029 RMK AO2
KFCS - Fort Carson
Distance from station: S 20mi, 33km
Updated: Wed, Jul-28-2021 4:58pm MDT
Clear
Clear
 Wind from calm
Wind: Calm
Temperature: 91°F , 33°C
Dew Point: 48°F , 9°C
Humidity: 23%
Barometer: 30.14 inHg , 1020.7 hPa
Clouds: Clear
Visibility: 10 miles , 16 km
2021/07/28 22:58 KFCS 282258Z AUTO 00000KT 10SM CLR 33/09 A3014 RMK AO2 SLP137 T03320092 $
 
KABH - Ellicot
Distance from station: ESE 29mi, 46km
Updated: Wed, Jul-28-2021 4:58pm MDT
Clear
Clear
 Wind from S
Wind: S 9 mph , 15 km/h
Temperature: 91°F , 33°C
Dew Point: 43°F , 6°C
Humidity: 18%
Barometer: 30.20 inHg , 1022.7 hPa
Clouds: Clear
Visibility: 9 miles , 14 km
2021/07/28 22:58 KABH 282258Z AUTO 18008KT 9SM CLR 33/06 A3020 RMK AO2 LTG DSNT SW SLP143 T03320064
K1V6 - Canon City
Distance from station: SSW 41mi, 65km
Updated: Wed, Jul-28-2021 5:15pm MDT
Clear
Clear
 Wind from E
Wind: E 13 mph , 20 km/h, Gust: 17 mph , 28 km/h
Temperature: 97°F , 36°C
Dew Point: 50°F , 10°C
Humidity: 20%
Barometer: 30.11 inHg , 1019.6 hPa
Clouds: Clear
Visibility: 10 miles , 16 km
2021/07/28 23:15 K1V6 282315Z AUTO 08011G15KT 10SM CLR 36/10 A3011 RMK AO2 LTG DSNT SE
 
K4BM - Wilkerson Pass
Distance from station: W 41mi, 65km
Updated: Wed, Jul-28-2021 5:15pm MDT
Clear
Clear
 Wind from ENE
Wind: ENE 8 mph , 13 km/h
Temperature: 70°F , 21°C
Dew Point: 28°F , -2°C
Humidity: 21%
Barometer: 30.70 inHg , 1039.6 hPa
Clouds: Clear
Visibility: 10 miles , 16 km
2021/07/28 23:15 K4BM 282315Z AUTO 06007KT 350V110 10SM CLR 21/M02 A3070 RMK AO2 LTG DSNT SW
KAPA - Denver/Arapahoe
Distance from station: N 42mi, 68km
Updated: Wed, Jul-28-2021 4:53pm MDT
Few Clouds
Few Clouds
 Wind from varies
Wind: varies 6 mph , 9 km/h
Temperature: 93°F , 34°C
Dew Point: 37°F , 3°C
Humidity: 14%
Barometer: 30.16 inHg , 1021.3 hPa
Clouds: Few Clouds
Visibility: 10 miles , 16 km
Cloud details: Few Clouds 10000 ft
Few Clouds 22000 ft
2021/07/28 22:53 KAPA 282253Z VRB05KT 10SM FEW100 FEW220 34/03 A3016 RMK AO2 SLP119 T03440028
 
KPUB - Pueblo
Distance from station: SSE 49mi, 79km
Updated: Wed, Jul-28-2021 4:53pm MDT
Clear
Clear
 Wind from SE
Wind: SE 12 mph , 19 km/h, Gust: 17 mph , 28 km/h
Temperature: 99°F , 37°C
Dew Point: 43°F , 6°C
Humidity: 15%
Barometer: 30.05 inHg , 1017.6 hPa
Clouds: Clear
Visibility: 10 miles , 16 km
2021/07/28 22:53 KPUB 282253Z AUTO 14010G15KT 10SM CLR 37/06 A3005 RMK AO2 SLP098 T03720056